sensor_id;sensor_type;location;lat;lon;timestamp;temperature;humidity
18218;DHT22;9234;49.344;11.120;2023-09-07T00:02:19;14.30;99.90
18218;DHT22;9234;49.344;11.120;2023-09-07T00:05:07;14.30;99.90
18218;DHT22;9234;49.344;11.120;2023-09-07T00:07:43;14.20;99.90
18218;DHT22;9234;49.344;11.120;2023-09-07T00:10:12;14.20;99.90
18218;DHT22;9234;49.344;11.120;2023-09-07T00:12:46;14.20;99.90
18218;DHT22;9234;49.344;11.120;2023-09-07T00:15:14;14.10;99.90
18218;DHT22;9234;49.344;11.120;2023-09-07T00:17:44;14.10;99.90
18218;DHT22;9234;49.344;11.120;2023-09-07T00:20:18;14.00;99.90
18218;DHT22;9234;49.344;11.120;2023-09-07T00:22:48;14.00;99.90
18218;DHT22;9234;49.344;11.120;2023-09-07T00:25:18;14.00;99.90
18218;DHT22;9234;49.344;11.120;2023-09-07T00:28:03;13.90;99.90
18218;DHT22;9234;49.344;11.120;2023-09-07T00:30:32;13.90;99.90
18218;DHT22;9234;49.344;11.120;2023-09-07T00:33:00;13.80;99.90
18218;DHT22;9234;49.344;11.120;2023-09-07T00:35:31;13.80;99.90
18218;DHT22;9234;49.344;11.120;2023-09-07T00:37:59;13.70;99.90
18218;DHT22;9234;49.344;11.120;2023-09-07T00:40:28;13.70;99.90
18218;DHT22;9234;49.344;11.120;2023-09-07T00:42:59;13.70;99.90
18218;DHT22;9234;49.344;11.120;2023-09-07T00:45:29;13.70;99.90
18218;DHT22;9234;49.344;11.120;2023-09-07T00:47:58;13.60;99.90
18218;DHT22;9234;49.344;11.120;2023-09-07T00:50:27;13.60;99.90
18218;DHT22;9234;49.344;11.120;2023-09-07T00:53:00;13.60;99.90
18218;DHT22;9234;49.344;11.120;2023-09-07T00:55:35;13.50;99.90
18218;DHT22;9234;49.344;11.120;2023-09-07T00:58:04;13.50;99.90
18218;DHT22;9234;49.344;11.120;2023-09-07T01:00:34;13.50;99.90
18218;DHT22;9234;49.344;11.120;2023-09-07T01:03:05;13.40;99.90
18218;DHT22;9234;49.344;11.120;2023-09-07T01:05:44;13.40;99.90
18218;DHT22;9234;49.344;11.120;2023-09-07T01:08:23;13.40;99.90
18218;DHT22;9234;49.344;11.120;2023-09-07T01:10:53;13.30;99.90
18218;DHT22;9234;49.344;11.120;2023-09-07T01:13:21;13.30;99.90
18218;DHT22;9234;49.344;11.120;2023-09-07T01:15:52;13.20;99.90
18218;DHT22;9234;49.344;11.120;2023-09-07T01:18:20;13.20;99.90
18218;DHT22;9234;49.344;11.120;2023-09-07T01:20:52;13.20;99.90
18218;DHT22;9234;49.344;11.120;2023-09-07T01:23:24;13.20;99.90
18218;DHT22;9234;49.344;11.120;2023-09-07T01:25:53;13.10;99.90
18218;DHT22;9234;49.344;11.120;2023-09-07T01:28:23;13.10;99.90
18218;DHT22;9234;49.344;11.120;2023-09-07T01:30:51;13.10;99.90
18218;DHT22;9234;49.344;11.120;2023-09-07T01:33:20;13.00;99.90
18218;DHT22;9234;49.344;11.120;2023-09-07T01:35:49;13.00;99.90
18218;DHT22;9234;49.344;11.120;2023-09-07T01:38:18;13.00;99.90
18218;DHT22;9234;49.344;11.120;2023-09-07T01:40:48;12.90;99.90
18218;DHT22;9234;49.344;11.120;2023-09-07T01:43:16;12.90;99.90
18218;DHT22;9234;49.344;11.120;2023-09-07T01:45:45;12.90;99.90
18218;DHT22;9234;49.344;11.120;2023-09-07T01:48:14;12.90;99.90
18218;DHT22;9234;49.344;11.120;2023-09-07T01:50:43;12.80;99.90
18218;DHT22;9234;49.344;11.120;2023-09-07T01:53:11;12.80;99.90
18218;DHT22;9234;49.344;11.120;2023-09-07T01:55:39;12.70;99.90
18218;DHT22;9234;49.344;11.120;2023-09-07T01:58:09;12.70;99.90
18218;DHT22;9234;49.344;11.120;2023-09-07T02:00:38;12.70;99.90
18218;DHT22;9234;49.344;11.120;2023-09-07T02:03:07;12.70;99.90
18218;DHT22;9234;49.344;11.120;2023-09-07T02:05:35;12.70;99.90
18218;DHT22;9234;49.344;11.120;2023-09-07T02:08:04;12.60;99.90
18218;DHT22;9234;49.344;11.120;2023-09-07T02:10:33;12.60;99.90
18218;DHT22;9234;49.344;11.120;2023-09-07T02:13:02;12.50;99.90
18218;DHT22;9234;49.344;11.120;2023-09-07T02:15:32;12.50;99.90
18218;DHT22;9234;49.344;11.120;2023-09-07T02:18:01;12.50;99.90
18218;DHT22;9234;49.344;11.120;2023-09-07T02:20:30;12.50;99.90
18218;DHT22;9234;49.344;11.120;2023-09-07T02:22:59;12.40;99.90
18218;DHT22;9234;49.344;11.120;2023-09-07T02:25:28;12.40;99.90
18218;DHT22;9234;49.344;11.120;2023-09-07T02:27:57;12.40;99.90
18218;DHT22;9234;49.344;11.120;2023-09-07T02:30:26;12.40;99.90
18218;DHT22;9234;49.344;11.120;2023-09-07T02:32:56;12.30;99.90
18218;DHT22;9234;49.344;11.120;2023-09-07T02:35:26;12.30;99.90
18218;DHT22;9234;49.344;11.120;2023-09-07T02:37:55;12.30;99.90
18218;DHT22;9234;49.344;11.120;2023-09-07T02:40:23;12.30;99.90
18218;DHT22;9234;49.344;11.120;2023-09-07T02:42:51;12.20;99.90
18218;DHT22;9234;49.344;11.120;2023-09-07T02:45:20;12.20;99.90
18218;DHT22;9234;49.344;11.120;2023-09-07T02:47:48;12.20;99.90
18218;DHT22;9234;49.344;11.120;2023-09-07T02:50:19;12.20;99.90
18218;DHT22;9234;49.344;11.120;2023-09-07T02:52:47;12.10;99.90
18218;DHT22;9234;49.344;11.120;2023-09-07T02:55:16;12.10;99.90
18218;DHT22;9234;49.344;11.120;2023-09-07T02:57:44;12.10;99.90
18218;DHT22;9234;49.344;11.120;2023-09-07T03:00:13;12.10;99.90
18218;DHT22;9234;49.344;11.120;2023-09-07T03:02:45;12.00;99.90
18218;DHT22;9234;49.344;11.120;2023-09-07T03:05:13;12.00;99.90
18218;DHT22;9234;49.344;11.120;2023-09-07T03:07:45;12.00;99.90
18218;DHT22;9234;49.344;11.120;2023-09-07T03:10:16;11.90;99.90
18218;DHT22;9234;49.344;11.120;2023-09-07T03:12:45;11.90;99.90
18218;DHT22;9234;49.344;11.120;2023-09-07T03:15:15;11.90;99.90
18218;DHT22;9234;49.344;11.120;2023-09-07T03:17:45;11.90;99.90
18218;DHT22;9234;49.344;11.120;2023-09-07T03:20:13;11.90;99.90
18218;DHT22;9234;49.344;11.120;2023-09-07T03:22:48;11.80;99.90
18218;DHT22;9234;49.344;11.120;2023-09-07T03:25:16;11.80;99.90
18218;DHT22;9234;49.344;11.120;2023-09-07T03:27:45;11.70;99.90
18218;DHT22;9234;49.344;11.120;2023-09-07T03:30:16;11.70;99.90
18218;DHT22;9234;49.344;11.120;2023-09-07T03:32:44;11.70;99.90
18218;DHT22;9234;49.344;11.120;2023-09-07T03:35:13;11.70;99.90
18218;DHT22;9234;49.344;11.120;2023-09-07T03:37:42;11.60;99.90
18218;DHT22;9234;49.344;11.120;2023-09-07T03:40:12;11.60;99.90
18218;DHT22;9234;49.344;11.120;2023-09-07T03:42:40;11.60;99.90
18218;DHT22;9234;49.344;11.120;2023-09-07T03:45:10;11.60;99.90
18218;DHT22;9234;49.344;11.120;2023-09-07T03:47:39;11.50;99.90
18218;DHT22;9234;49.344;11.120;2023-09-07T03:50:09;11.50;99.90
18218;DHT22;9234;49.344;11.120;2023-09-07T03:52:38;11.50;99.90
18218;DHT22;9234;49.344;11.120;2023-09-07T03:55:07;11.40;99.90
18218;DHT22;9234;49.344;11.120;2023-09-07T03:57:39;11.40;99.90
18218;DHT22;9234;49.344;11.120;2023-09-07T04:00:09;11.40;99.90
18218;DHT22;9234;49.344;11.120;2023-09-07T04:02:47;11.40;99.90
18218;DHT22;9234;49.344;11.120;2023-09-07T04:05:15;11.40;99.90
18218;DHT22;9234;49.344;11.120;2023-09-07T04:07:45;11.30;99.90
18218;DHT22;9234;49.344;11.120;2023-09-07T04:10:13;11.30;99.90
18218;DHT22;9234;49.344;11.120;2023-09-07T04:12:43;11.30;99.90
18218;DHT22;9234;49.344;11.120;2023-09-07T04:15:11;11.30;99.90
18218;DHT22;9234;49.344;11.120;2023-09-07T04:17:40;11.20;99.90
18218;DHT22;9234;49.344;11.120;2023-09-07T04:20:12;11.20;99.90
18218;DHT22;9234;49.344;11.120;2023-09-07T04:22:40;11.20;99.90
18218;DHT22;9234;49.344;11.120;2023-09-07T04:25:08;11.10;99.90
18218;DHT22;9234;49.344;11.120;2023-09-07T04:27:37;11.10;99.90
18218;DHT22;9234;49.344;11.120;2023-09-07T04:30:09;11.10;99.90
18218;DHT22;9234;49.344;11.120;2023-09-07T04:32:38;11.10;99.90
18218;DHT22;9234;49.344;11.120;2023-09-07T04:35:07;11.00;99.90
18218;DHT22;9234;49.344;11.120;2023-09-07T04:37:36;11.00;99.90
18218;DHT22;9234;49.344;11.120;2023-09-07T04:40:06;11.00;99.90
18218;DHT22;9234;49.344;11.120;2023-09-07T04:42:35;11.00;99.90
18218;DHT22;9234;49.344;11.120;2023-09-07T04:45:09;10.90;99.90
18218;DHT22;9234;49.344;11.120;2023-09-07T04:47:38;10.90;99.90
18218;DHT22;9234;49.344;11.120;2023-09-07T04:50:07;10.90;99.90
18218;DHT22;9234;49.344;11.120;2023-09-07T04:52:36;10.90;99.90
18218;DHT22;9234;49.344;11.120;2023-09-07T04:55:05;10.90;99.90
18218;DHT22;9234;49.344;11.120;2023-09-07T04:57:36;10.90;99.90
18218;DHT22;9234;49.344;11.120;2023-09-07T05:00:06;10.90;99.90
18218;DHT22;9234;49.344;11.120;2023-09-07T05:02:37;10.90;99.90
18218;DHT22;9234;49.344;11.120;2023-09-07T05:05:08;10.90;99.90
18218;DHT22;9234;49.344;11.120;2023-09-07T05:07:37;10.90;99.90
18218;DHT22;9234;49.344;11.120;2023-09-07T05:10:07;10.90;99.90
18218;DHT22;9234;49.344;11.120;2023-09-07T05:12:39;10.90;99.90
18218;DHT22;9234;49.344;11.120;2023-09-07T05:15:09;10.90;99.90
18218;DHT22;9234;49.344;11.120;2023-09-07T05:17:38;10.90;99.90
18218;DHT22;9234;49.344;11.120;2023-09-07T05:20:07;10.90;99.90
18218;DHT22;9234;49.344;11.120;2023-09-07T05:22:37;10.90;99.90
18218;DHT22;9234;49.344;11.120;2023-09-07T05:25:08;11.00;99.90
18218;DHT22;9234;49.344;11.120;2023-09-07T05:27:38;11.00;99.90
18218;DHT22;9234;49.344;11.120;2023-09-07T05:30:08;11.00;99.90
18218;DHT22;9234;49.344;11.120;2023-09-07T05:32:37;11.10;99.90
18218;DHT22;9234;49.344;11.120;2023-09-07T05:35:07;11.10;99.90
18218;DHT22;9234;49.344;11.120;2023-09-07T05:37:37;11.10;99.90
18218;DHT22;9234;49.344;11.120;2023-09-07T05:40:07;11.20;99.90
18218;DHT22;9234;49.344;11.120;2023-09-07T05:42:36;11.30;99.90
18218;DHT22;9234;49.344;11.120;2023-09-07T05:45:06;11.30;99.90
18218;DHT22;9234;49.344;11.120;2023-09-07T05:47:36;11.30;99.90
18218;DHT22;9234;49.344;11.120;2023-09-07T05:50:06;11.40;99.90
18218;DHT22;9234;49.344;11.120;2023-09-07T05:52:35;11.40;99.90
18218;DHT22;9234;49.344;11.120;2023-09-07T05:55:04;11.50;99.90
18218;DHT22;9234;49.344;11.120;2023-09-07T05:57:34;11.60;99.90
18218;DHT22;9234;49.344;11.120;2023-09-07T06:00:03;11.60;99.90
18218;DHT22;9234;49.344;11.120;2023-09-07T06:02:40;11.70;99.90
18218;DHT22;9234;49.344;11.120;2023-09-07T06:05:11;11.80;99.90
18218;DHT22;9234;49.344;11.120;2023-09-07T06:07:39;11.80;99.90
18218;DHT22;9234;49.344;11.120;2023-09-07T06:10:08;11.90;99.90
18218;DHT22;9234;49.344;11.120;2023-09-07T06:12:38;12.00;99.90
18218;DHT22;9234;49.344;11.120;2023-09-07T06:15:08;12.10;99.90
18218;DHT22;9234;49.344;11.120;2023-09-07T06:17:37;12.20;99.90
18218;DHT22;9234;49.344;11.120;2023-09-07T06:20:09;12.30;99.90
18218;DHT22;9234;49.344;11.120;2023-09-07T06:22:38;12.40;99.90
18218;DHT22;9234;49.344;11.120;2023-09-07T06:25:06;12.40;99.90
18218;DHT22;9234;49.344;11.120;2023-09-07T06:27:35;12.50;99.90
18218;DHT22;9234;49.344;11.120;2023-09-07T06:30:07;12.60;99.90
18218;DHT22;9234;49.344;11.120;2023-09-07T06:32:37;12.70;99.90
18218;DHT22;9234;49.344;11.120;2023-09-07T06:35:10;12.80;99.90
18218;DHT22;9234;49.344;11.120;2023-09-07T06:37:38;13.00;99.90
18218;DHT22;9234;49.344;11.120;2023-09-07T06:40:11;13.10;99.90
18218;DHT22;9234;49.344;11.120;2023-09-07T06:42:41;13.20;99.90
18218;DHT22;9234;49.344;11.120;2023-09-07T06:45:13;13.20;99.90
18218;DHT22;9234;49.344;11.120;2023-09-07T06:47:42;13.40;99.90
18218;DHT22;9234;49.344;11.120;2023-09-07T06:50:12;13.50;99.90
18218;DHT22;9234;49.344;11.120;2023-09-07T06:52:40;13.60;99.90
18218;DHT22;9234;49.344;11.120;2023-09-07T06:55:09;13.70;99.90
18218;DHT22;9234;49.344;11.120;2023-09-07T06:57:38;13.80;99.90
18218;DHT22;9234;49.344;11.120;2023-09-07T07:00:07;14.00;99.90
18218;DHT22;9234;49.344;11.120;2023-09-07T07:02:37;14.20;99.90
18218;DHT22;9234;49.344;11.120;2023-09-07T07:05:07;14.30;99.90
18218;DHT22;9234;49.344;11.120;2023-09-07T07:07:39;14.40;99.90
18218;DHT22;9234;49.344;11.120;2023-09-07T07:10:08;14.50;99.90
18218;DHT22;9234;49.344;11.120;2023-09-07T07:12:39;14.70;99.90
18218;DHT22;9234;49.344;11.120;2023-09-07T07:15:09;14.80;99.90
18218;DHT22;9234;49.344;11.120;2023-09-07T07:17:38;14.90;99.90
18218;DHT22;9234;49.344;11.120;2023-09-07T07:20:08;15.00;99.90
18218;DHT22;9234;49.344;11.120;2023-09-07T07:22:39;15.20;99.90
18218;DHT22;9234;49.344;11.120;2023-09-07T07:25:10;15.30;99.90
18218;DHT22;9234;49.344;11.120;2023-09-07T07:27:38;15.50;99.90
18218;DHT22;9234;49.344;11.120;2023-09-07T07:30:07;15.60;99.90
18218;DHT22;9234;49.344;11.120;2023-09-07T07:32:38;15.80;99.90
18218;DHT22;9234;49.344;11.120;2023-09-07T07:35:07;15.90;99.90
18218;DHT22;9234;49.344;11.120;2023-09-07T07:37:36;16.10;99.90
18218;DHT22;9234;49.344;11.120;2023-09-07T07:40:08;16.20;99.90
18218;DHT22;9234;49.344;11.120;2023-09-07T07:42:37;16.40;99.90
18218;DHT22;9234;49.344;11.120;2023-09-07T07:45:07;16.50;99.90
18218;DHT22;9234;49.344;11.120;2023-09-07T07:47:37;16.70;99.90
18218;DHT22;9234;49.344;11.120;2023-09-07T07:50:06;16.90;99.90
18218;DHT22;9234;49.344;11.120;2023-09-07T07:52:35;17.00;99.90
18218;DHT22;9234;49.344;11.120;2023-09-07T07:55:05;17.20;99.90
18218;DHT22;9234;49.344;11.120;2023-09-07T07:57:35;17.40;99.90
18218;DHT22;9234;49.344;11.120;2023-09-07T08:00:04;17.60;99.90
18218;DHT22;9234;49.344;11.120;2023-09-07T08:02:39;17.80;99.90
18218;DHT22;9234;49.344;11.120;2023-09-07T08:05:10;17.90;99.90
18218;DHT22;9234;49.344;11.120;2023-09-07T08:07:39;18.10;99.90
18218;DHT22;9234;49.344;11.120;2023-09-07T08:10:09;18.30;99.90
18218;DHT22;9234;49.344;11.120;2023-09-07T08:12:38;18.40;99.90
18218;DHT22;9234;49.344;11.120;2023-09-07T08:15:07;18.60;99.90
18218;DHT22;9234;49.344;11.120;2023-09-07T08:17:36;18.80;99.90
18218;DHT22;9234;49.344;11.120;2023-09-07T08:20:05;18.90;99.90
18218;DHT22;9234;49.344;11.120;2023-09-07T08:22:38;19.10;99.90
18218;DHT22;9234;49.344;11.120;2023-09-07T08:25:12;19.30;99.90
18218;DHT22;9234;49.344;11.120;2023-09-07T08:27:41;19.50;99.90
18218;DHT22;9234;49.344;11.120;2023-09-07T08:30:12;19.70;99.90
18218;DHT22;9234;49.344;11.120;2023-09-07T08:32:42;19.90;99.90
18218;DHT22;9234;49.344;11.120;2023-09-07T08:35:12;20.00;99.90
18218;DHT22;9234;49.344;11.120;2023-09-07T08:37:41;20.20;99.90
18218;DHT22;9234;49.344;11.120;2023-09-07T08:40:11;20.40;99.90
18218;DHT22;9234;49.344;11.120;2023-09-07T08:42:43;20.60;99.90
18218;DHT22;9234;49.344;11.120;2023-09-07T08:45:13;20.70;99.90
18218;DHT22;9234;49.344;11.120;2023-09-07T08:47:46;20.90;99.90
18218;DHT22;9234;49.344;11.120;2023-09-07T08:50:17;21.10;99.90
18218;DHT22;9234;49.344;11.120;2023-09-07T08:52:52;21.30;99.90
18218;DHT22;9234;49.344;11.120;2023-09-07T08:55:22;21.40;99.90
18218;DHT22;9234;49.344;11.120;2023-09-07T08:57:51;21.60;99.90
18218;DHT22;9234;49.344;11.120;2023-09-07T09:00:20;21.70;99.90
18218;DHT22;9234;49.344;11.120;2023-09-07T09:02:48;21.90;99.90
18218;DHT22;9234;49.344;11.120;2023-09-07T09:05:23;22.10;99.90
18218;DHT22;9234;49.344;11.120;2023-09-07T09:08:01;22.20;99.90
18218;DHT22;9234;49.344;11.120;2023-09-07T09:10:32;22.40;99.90
18218;DHT22;9234;49.344;11.120;2023-09-07T09:13:00;22.60;99.90
18218;DHT22;9234;49.344;11.120;2023-09-07T09:15:29;22.80;99.10
18218;DHT22;9234;49.344;11.120;2023-09-07T09:17:57;22.90;98.20
18218;DHT22;9234;49.344;11.120;2023-09-07T09:20:26;23.10;98.50
18218;DHT22;9234;49.344;11.120;2023-09-07T09:22:55;23.30;98.50
18218;DHT22;9234;49.344;11.120;2023-09-07T09:25:24;23.40;97.40
18218;DHT22;9234;49.344;11.120;2023-09-07T09:27:55;23.60;96.80
18218;DHT22;9234;49.344;11.120;2023-09-07T09:30:23;23.80;96.60
18218;DHT22;9234;49.344;11.120;2023-09-07T09:32:54;24.00;95.70
18218;DHT22;9234;49.344;11.120;2023-09-07T09:35:22;24.20;95.60
18218;DHT22;9234;49.344;11.120;2023-09-07T09:37:51;24.40;95.40
18218;DHT22;9234;49.344;11.120;2023-09-07T09:40:19;24.60;94.20
18218;DHT22;9234;49.344;11.120;2023-09-07T09:42:52;24.70;93.80
18218;DHT22;9234;49.344;11.120;2023-09-07T09:45:26;24.90;93.50
18218;DHT22;9234;49.344;11.120;2023-09-07T09:47:55;25.10;92.90
18218;DHT22;9234;49.344;11.120;2023-09-07T09:50:27;25.20;91.50
18218;DHT22;9234;49.344;11.120;2023-09-07T09:52:56;25.30;91.30
18218;DHT22;9234;49.344;11.120;2023-09-07T09:55:26;25.40;90.60
18218;DHT22;9234;49.344;11.120;2023-09-07T09:57:57;25.50;90.70
18218;DHT22;9234;49.344;11.120;2023-09-07T10:00:25;25.70;89.20
18218;DHT22;9234;49.344;11.120;2023-09-07T10:03:00;25.80;89.30
18218;DHT22;9234;49.344;11.120;2023-09-07T10:05:32;26.00;88.90
18218;DHT22;9234;49.344;11.120;2023-09-07T10:08:02;26.10;89.00
18218;DHT22;9234;49.344;11.120;2023-09-07T10:10:34;26.30;87.60
18218;DHT22;9234;49.344;11.120;2023-09-07T10:13:06;26.50;85.80
18218;DHT22;9234;49.344;11.120;2023-09-07T10:15:35;26.60;82.90
18218;DHT22;9234;49.344;11.120;2023-09-07T10:18:06;26.80;82.70
18218;DHT22;9234;49.344;11.120;2023-09-07T10:20:54;26.80;81.90
18218;DHT22;9234;49.344;11.120;2023-09-07T10:23:35;27.00;81.60
18218;DHT22;9234;49.344;11.120;2023-09-07T10:26:10;27.20;81.20
18218;DHT22;9234;49.344;11.120;2023-09-07T10:28:42;27.40;76.00
18218;DHT22;9234;49.344;11.120;2023-09-07T10:31:14;27.50;75.60
18218;DHT22;9234;49.344;11.120;2023-09-07T10:33:46;27.60;75.70
18218;DHT22;9234;49.344;11.120;2023-09-07T10:36:23;27.70;74.90
18218;DHT22;9234;49.344;11.120;2023-09-07T10:38:55;27.80;74.90
18218;DHT22;9234;49.344;11.120;2023-09-07T10:41:23;28.00;76.10
18218;DHT22;9234;49.344;11.120;2023-09-07T10:43:54;28.10;73.20
18218;DHT22;9234;49.344;11.120;2023-09-07T10:46:23;28.30;71.10
18218;DHT22;9234;49.344;11.120;2023-09-07T10:48:53;28.40;69.80
18218;DHT22;9234;49.344;11.120;2023-09-07T10:51:23;28.60;71.30
18218;DHT22;9234;49.344;11.120;2023-09-07T10:53:51;28.70;69.10
18218;DHT22;9234;49.344;11.120;2023-09-07T10:56:24;28.90;67.30
18218;DHT22;9234;49.344;11.120;2023-09-07T10:58:55;29.00;67.80
18218;DHT22;9234;49.344;11.120;2023-09-07T11:01:23;29.10;67.20
18218;DHT22;9234;49.344;11.120;2023-09-07T11:03:52;29.30;66.50
18218;DHT22;9234;49.344;11.120;2023-09-07T11:06:21;29.40;65.80
18218;DHT22;9234;49.344;11.120;2023-09-07T11:08:53;29.60;65.40
18218;DHT22;9234;49.344;11.120;2023-09-07T11:11:21;29.60;62.50
18218;DHT22;9234;49.344;11.120;2023-09-07T11:13:50;29.70;63.20
18218;DHT22;9234;49.344;11.120;2023-09-07T11:16:20;29.80;64.10
18218;DHT22;9234;49.344;11.120;2023-09-07T11:18:53;29.90;60.70
18218;DHT22;9234;49.344;11.120;2023-09-07T11:21:22;30.00;60.90
18218;DHT22;9234;49.344;11.120;2023-09-07T11:23:52;29.90;59.00
18218;DHT22;9234;49.344;11.120;2023-09-07T11:26:20;29.90;60.50
18218;DHT22;9234;49.344;11.120;2023-09-07T11:28:49;30.00;61.30
18218;DHT22;9234;49.344;11.120;2023-09-07T11:31:20;30.20;61.80
18218;DHT22;9234;49.344;11.120;2023-09-07T11:33:48;30.40;61.00
18218;DHT22;9234;49.344;11.120;2023-09-07T11:36:17;30.50;58.70
18218;DHT22;9234;49.344;11.120;2023-09-07T11:38:45;30.60;59.60
18218;DHT22;9234;49.344;11.120;2023-09-07T11:41:13;30.70;59.00
18218;DHT22;9234;49.344;11.120;2023-09-07T11:43:42;30.90;58.50
18218;DHT22;9234;49.344;11.120;2023-09-07T11:46:12;31.10;58.90
18218;DHT22;9234;49.344;11.120;2023-09-07T11:48:42;31.40;59.10
18218;DHT22;9234;49.344;11.120;2023-09-07T11:51:10;31.60;57.80
18218;DHT22;9234;49.344;11.120;2023-09-07T11:53:38;31.80;58.90
18218;DHT22;9234;49.344;11.120;2023-09-07T11:56:06;32.10;57.40
18218;DHT22;9234;49.344;11.120;2023-09-07T11:58:35;32.20;56.80
18218;DHT22;9234;49.344;11.120;2023-09-07T12:01:03;32.30;54.90
18218;DHT22;9234;49.344;11.120;2023-09-07T12:03:33;32.40;54.60
18218;DHT22;9234;49.344;11.120;2023-09-07T12:06:03;32.40;53.40
18218;DHT22;9234;49.344;11.120;2023-09-07T12:08:32;32.60;54.40
18218;DHT22;9234;49.344;11.120;2023-09-07T12:11:00;32.60;52.90
18218;DHT22;9234;49.344;11.120;2023-09-07T12:13:28;32.60;53.70
18218;DHT22;9234;49.344;11.120;2023-09-07T12:15:57;32.60;53.50
18218;DHT22;9234;49.344;11.120;2023-09-07T12:18:28;32.70;54.00
18218;DHT22;9234;49.344;11.120;2023-09-07T12:20:57;33.00;55.10
18218;DHT22;9234;49.344;11.120;2023-09-07T12:23:27;33.20;55.70
18218;DHT22;9234;49.344;11.120;2023-09-07T12:25:56;33.60;53.20
18218;DHT22;9234;49.344;11.120;2023-09-07T12:28:25;33.60;51.10
18218;DHT22;9234;49.344;11.120;2023-09-07T12:30:53;33.60;52.10
18218;DHT22;9234;49.344;11.120;2023-09-07T12:33:22;33.60;52.60
18218;DHT22;9234;49.344;11.120;2023-09-07T12:35:50;33.80;52.10
18218;DHT22;9234;49.344;11.120;2023-09-07T12:38:18;34.00;51.20
18218;DHT22;9234;49.344;11.120;2023-09-07T12:40:50;34.20;50.80
18218;DHT22;9234;49.344;11.120;2023-09-07T12:43:18;34.60;51.90
18218;DHT22;9234;49.344;11.120;2023-09-07T12:45:47;34.90;49.80
18218;DHT22;9234;49.344;11.120;2023-09-07T12:48:15;35.00;49.40
18218;DHT22;9234;49.344;11.120;2023-09-07T12:50:43;35.20;48.70
18218;DHT22;9234;49.344;11.120;2023-09-07T12:53:12;35.20;48.40
18218;DHT22;9234;49.344;11.120;2023-09-07T12:55:40;35.40;49.10
18218;DHT22;9234;49.344;11.120;2023-09-07T12:58:10;35.70;48.60
18218;DHT22;9234;49.344;11.120;2023-09-07T13:00:38;36.00;48.60
18218;DHT22;9234;49.344;11.120;2023-09-07T13:03:06;36.20;47.20
18218;DHT22;9234;49.344;11.120;2023-09-07T13:05:35;36.50;47.30
18218;DHT22;9234;49.344;11.120;2023-09-07T13:08:03;36.70;46.90
18218;DHT22;9234;49.344;11.120;2023-09-07T13:10:33;36.80;45.40
18218;DHT22;9234;49.344;11.120;2023-09-07T13:13:01;36.80;45.80
18218;DHT22;9234;49.344;11.120;2023-09-07T13:15:31;37.00;45.60
18218;DHT22;9234;49.344;11.120;2023-09-07T13:17:59;37.20;46.30
18218;DHT22;9234;49.344;11.120;2023-09-07T13:20:28;37.50;45.50
18218;DHT22;9234;49.344;11.120;2023-09-07T13:22:56;37.70;45.40
18218;DHT22;9234;49.344;11.120;2023-09-07T13:25:25;37.80;41.70
18218;DHT22;9234;49.344;11.120;2023-09-07T13:27:53;37.60;43.40
18218;DHT22;9234;49.344;11.120;2023-09-07T13:30:23;37.70;43.50
18218;DHT22;9234;49.344;11.120;2023-09-07T13:32:53;37.80;44.50
18218;DHT22;9234;49.344;11.120;2023-09-07T13:35:21;38.00;43.10
18218;DHT22;9234;49.344;11.120;2023-09-07T13:37:50;38.20;43.70
18218;DHT22;9234;49.344;11.120;2023-09-07T13:40:18;38.40;43.20
18218;DHT22;9234;49.344;11.120;2023-09-07T13:42:50;38.50;41.50
18218;DHT22;9234;49.344;11.120;2023-09-07T13:45:19;38.50;41.00
18218;DHT22;9234;49.344;11.120;2023-09-07T13:47:47;38.50;41.20
18218;DHT22;9234;49.344;11.120;2023-09-07T13:50:17;38.50;41.20
18218;DHT22;9234;49.344;11.120;2023-09-07T13:52:46;38.60;42.50
18218;DHT22;9234;49.344;11.120;2023-09-07T13:55:15;38.80;42.60
18218;DHT22;9234;49.344;11.120;2023-09-07T13:57:44;39.10;42.80
18218;DHT22;9234;49.344;11.120;2023-09-07T14:00:14;39.40;42.60
18218;DHT22;9234;49.344;11.120;2023-09-07T14:02:43;39.70;41.20
18218;DHT22;9234;49.344;11.120;2023-09-07T14:05:11;39.90;41.90
18218;DHT22;9234;49.344;11.120;2023-09-07T14:07:41;40.00;41.50
18218;DHT22;9234;49.344;11.120;2023-09-07T14:10:09;40.20;42.30
18218;DHT22;9234;49.344;11.120;2023-09-07T14:12:38;40.40;41.60
18218;DHT22;9234;49.344;11.120;2023-09-07T14:15:07;40.30;40.00
18218;DHT22;9234;49.344;11.120;2023-09-07T14:17:36;40.30;41.40
18218;DHT22;9234;49.344;11.120;2023-09-07T14:20:05;40.40;40.80
18218;DHT22;9234;49.344;11.120;2023-09-07T14:22:34;40.30;39.00
18218;DHT22;9234;49.344;11.120;2023-09-07T14:25:04;40.20;40.00
18218;DHT22;9234;49.344;11.120;2023-09-07T14:27:34;40.10;40.20
18218;DHT22;9234;49.344;11.120;2023-09-07T14:30:02;40.10;38.30
18218;DHT22;9234;49.344;11.120;2023-09-07T14:32:31;40.00;39.90
18218;DHT22;9234;49.344;11.120;2023-09-07T14:34:59;40.20;39.20
18218;DHT22;9234;49.344;11.120;2023-09-07T14:37:28;40.30;39.00
18218;DHT22;9234;49.344;11.120;2023-09-07T14:39:56;40.60;39.70
18218;DHT22;9234;49.344;11.120;2023-09-07T14:42:27;40.90;38.80
18218;DHT22;9234;49.344;11.120;2023-09-07T14:44:56;41.00;38.30
18218;DHT22;9234;49.344;11.120;2023-09-07T14:47:29;41.20;38.90
18218;DHT22;9234;49.344;11.120;2023-09-07T14:49:57;41.30;37.80
18218;DHT22;9234;49.344;11.120;2023-09-07T14:52:26;41.30;36.70
18218;DHT22;9234;49.344;11.120;2023-09-07T14:54:54;41.20;37.50
18218;DHT22;9234;49.344;11.120;2023-09-07T14:57:22;41.10;37.60
18218;DHT22;9234;49.344;11.120;2023-09-07T14:59:52;41.30;38.10
18218;DHT22;9234;49.344;11.120;2023-09-07T15:02:20;41.30;37.50
18218;DHT22;9234;49.344;11.120;2023-09-07T15:04:49;41.20;37.30
18218;DHT22;9234;49.344;11.120;2023-09-07T15:07:17;41.20;37.20
18218;DHT22;9234;49.344;11.120;2023-09-07T15:09:47;41.10;37.60
18218;DHT22;9234;49.344;11.120;2023-09-07T15:12:15;41.10;37.30
18218;DHT22;9234;49.344;11.120;2023-09-07T15:14:43;40.90;37.00
18218;DHT22;9234;49.344;11.120;2023-09-07T15:17:13;40.90;38.20
18218;DHT22;9234;49.344;11.120;2023-09-07T15:19:43;40.90;37.90
18218;DHT22;9234;49.344;11.120;2023-09-07T15:22:12;41.00;38.60
18218;DHT22;9234;49.344;11.120;2023-09-07T15:24:40;41.20;38.30
18218;DHT22;9234;49.344;11.120;2023-09-07T15:27:10;41.50;38.40
18218;DHT22;9234;49.344;11.120;2023-09-07T15:29:39;41.80;37.70
18218;DHT22;9234;49.344;11.120;2023-09-07T15:32:08;42.00;37.30
18218;DHT22;9234;49.344;11.120;2023-09-07T15:34:38;41.90;36.80
18218;DHT22;9234;49.344;11.120;2023-09-07T15:37:06;41.90;37.20
18218;DHT22;9234;49.344;11.120;2023-09-07T15:39:35;41.90;36.60
18218;DHT22;9234;49.344;11.120;2023-09-07T15:42:03;41.80;36.80
18218;DHT22;9234;49.344;11.120;2023-09-07T15:44:32;41.60;36.70
18218;DHT22;9234;49.344;11.120;2023-09-07T15:47:00;41.50;37.20